Aérodrome :
LOGIN :

S'inscrire | Disclaimer

   EN    FR    IT 

 










Légende :    VFR   VFR Marginal   IFR   IFR Intensif   IFR Très Intensif
Visi : 
Plafond : 
>= 8 km
>= 3000ft
5 à 8 km
1000 à 3000 ft
1500m à 5 km
500 à 1000 ft
800 à 1500m
200 à 500 ft
< 800m
< 200 ft
Symboles :   Orages  Brouillard  Fortes neiges  Fortes précipitations  Vent > 20 kt
SIGMETs :   Divers  Orages  Givrage  Turbulence  Onde Orograph.  Cendres Volcan.






- Altitude de l'aérodrome : 26 ft


ETNT - Wittmundhaven AB

DERNIER METAR :
  • 220420Z 22007KT 9999 SCT010 11/09 Q1019 BLU+BLU+ BECMG YLO

METARs EXPIRÉS :
  • 220320Z 24005KT 9999 BKN010 11/10 Q1019 GRN
  • 220220Z 21004KT 9999 FEW014 BKN048 11/09 Q1019 BLU

TAF TAF ETNT
Valide du 22 à 05h jusqu'au 22 à 14h UTC


220420Z 2205/2214 22006KT 9999 NSW BKN010
BECMG 2205/2206 22009KT 5000 BR BKN004 BKN008
TEMPO 2206/2208 20008KT 3000 -DZ OVC001 BKN005
BECMG 2210/2212 24010G20KT 9999 NSW BKN012 BY ETGL



MET'MAP, la Météo Aéronautique d'un coup d'oeil ! - Copyright ORBIFLY Décembre 2007 - Disclaimer

ORBIFLY MET'MAP TEAM :

Programmation & Développement : Alexandra Zaïnal
Conception & Développement : Baudouin d'Aumeries
Co-Programmation & Développement : Marc-Olivier Méhu
Soutien technique & logistique : Manuel Goepfert

Contact : metmap@orbifly.com




SOURCES & CREDITS :

   NOAA